sensor_id;sensor_type;location;lat;lon;timestamp;pressure;altitude;pressure_sealevel;temperature;humidity
12626;BME280;6378;42.684;23.372;2022-09-29T00:00:23;94225.00;;;17.25;100.00
12626;BME280;6378;42.684;23.372;2022-09-29T00:02:49;94231.06;;;17.36;100.00
12626;BME280;6378;42.684;23.372;2022-09-29T00:05:14;94212.38;;;17.38;100.00
12626;BME280;6378;42.684;23.372;2022-09-29T00:07:39;94205.66;;;17.46;100.00
12626;BME280;6378;42.684;23.372;2022-09-29T00:10:05;94202.88;;;17.53;100.00
12626;BME280;6378;42.684;23.372;2022-09-29T00:12:30;94214.56;;;17.50;100.00
12626;BME280;6378;42.684;23.372;2022-09-29T00:14:56;94223.63;;;17.40;100.00
12626;BME280;6378;42.684;23.372;2022-09-29T00:17:21;94217.84;;;17.38;100.00
12626;BME280;6378;42.684;23.372;2022-09-29T00:19:47;94178.47;;;17.16;100.00
12626;BME280;6378;42.684;23.372;2022-09-29T00:22:12;94206.63;;;17.32;100.00
12626;BME280;6378;42.684;23.372;2022-09-29T00:24:37;94213.25;;;17.31;100.00
12626;BME280;6378;42.684;23.372;2022-09-29T00:27:03;94199.88;;;17.14;100.00
12626;BME280;6378;42.684;23.372;2022-09-29T00:29:28;94207.84;;;17.28;100.00
12626;BME280;6378;42.684;23.372;2022-09-29T00:31:54;94219.28;;;17.46;100.00
12626;BME280;6378;42.684;23.372;2022-09-29T00:34:19;94220.00;;;17.50;100.00
12626;BME280;6378;42.684;23.372;2022-09-29T00:36:45;94196.84;;;17.39;100.00
12626;BME280;6378;42.684;23.372;2022-09-29T00:39:10;94163.81;;;17.37;100.00
12626;BME280;6378;42.684;23.372;2022-09-29T00:41:38;94195.09;;;17.52;100.00
12626;BME280;6378;42.684;23.372;2022-09-29T00:44:47;94198.28;;;17.47;100.00
12626;BME280;6378;42.684;23.372;2022-09-29T00:47:02;94212.28;;;17.45;100.00
12626;BME280;6378;42.684;23.372;2022-09-29T00:55:05;94207.81;;;17.31;100.00
12626;BME280;6378;42.684;23.372;2022-09-29T00:57:44;94226.91;;;17.28;100.00
12626;BME280;6378;42.684;23.372;2022-09-29T01:00:14;94217.75;;;17.15;100.00
12626;BME280;6378;42.684;23.372;2022-09-29T01:02:44;94221.25;;;17.12;100.00
12626;BME280;6378;42.684;23.372;2022-09-29T01:05:15;94205.59;;;17.23;100.00
12626;BME280;6378;42.684;23.372;2022-09-29T01:07:43;94186.28;;;17.14;100.00
12626;BME280;6378;42.684;23.372;2022-09-29T01:10:12;94196.69;;;17.19;100.00
12626;BME280;6378;42.684;23.372;2022-09-29T01:12:43;94194.19;;;17.01;100.00
12626;BME280;6378;42.684;23.372;2022-09-29T01:15:10;94189.34;;;17.16;100.00
12626;BME280;6378;42.684;23.372;2022-09-29T01:17:36;94203.81;;;17.09;100.00
12626;BME280;6378;42.684;23.372;2022-09-29T01:33:38;94208.66;;;16.91;100.00
12626;BME280;6378;42.684;23.372;2022-09-29T01:41:16;94218.53;;;16.78;100.00
12626;BME280;6378;42.684;23.372;2022-09-29T01:44:10;94223.56;;;16.79;100.00
12626;BME280;6378;42.684;23.372;2022-09-29T01:46:46;94229.19;;;16.58;100.00
12626;BME280;6378;42.684;23.372;2022-09-29T01:49:13;94240.84;;;16.55;100.00
12626;BME280;6378;42.684;23.372;2022-09-29T01:51:49;94239.03;;;16.41;100.00
12626;BME280;6378;42.684;23.372;2022-09-29T01:54:38;94255.66;;;16.47;100.00
12626;BME280;6378;42.684;23.372;2022-09-29T01:59:48;94255.56;;;16.61;100.00
12626;BME280;6378;42.684;23.372;2022-09-29T02:02:20;94250.13;;;16.58;100.00
12626;BME280;6378;42.684;23.372;2022-09-29T02:04:53;94240.50;;;16.50;100.00
12626;BME280;6378;42.684;23.372;2022-09-29T02:07:24;94245.19;;;16.45;100.00
12626;BME280;6378;42.684;23.372;2022-09-29T02:09:58;94248.75;;;16.39;100.00
12626;BME280;6378;42.684;23.372;2022-09-29T02:12:27;94221.00;;;16.14;100.00
12626;BME280;6378;42.684;23.372;2022-09-29T02:14:56;94253.47;;;16.28;100.00
12626;BME280;6378;42.684;23.372;2022-09-29T02:17:30;94252.00;;;16.20;100.00
12626;BME280;6378;42.684;23.372;2022-09-29T02:19:56;94257.16;;;16.07;100.00
12626;BME280;6378;42.684;23.372;2022-09-29T02:22:21;94266.88;;;16.01;100.00
12626;BME280;6378;42.684;23.372;2022-09-29T02:24:48;94265.81;;;15.84;100.00
12626;BME280;6378;42.684;23.372;2022-09-29T02:27:16;94261.22;;;15.78;100.00
12626;BME280;6378;42.684;23.372;2022-09-29T02:29:43;94257.31;;;15.79;100.00
12626;BME280;6378;42.684;23.372;2022-09-29T02:32:08;94255.78;;;15.78;100.00
12626;BME280;6378;42.684;23.372;2022-09-29T02:34:37;94260.19;;;15.47;100.00
12626;BME280;6378;42.684;23.372;2022-09-29T02:49:05;94269.09;;;15.44;100.00
12626;BME280;6378;42.684;23.372;2022-09-29T02:51:56;94252.84;;;15.40;100.00
12626;BME280;6378;42.684;23.372;2022-09-29T02:59:41;94284.19;;;15.45;100.00
12626;BME280;6378;42.684;23.372;2022-09-29T03:02:14;94273.72;;;15.47;100.00
12626;BME280;6378;42.684;23.372;2022-09-29T03:04:40;94274.09;;;15.56;100.00
12626;BME280;6378;42.684;23.372;2022-09-29T03:07:05;94250.41;;;15.67;100.00
12626;BME280;6378;42.684;23.372;2022-09-29T03:09:31;94245.13;;;15.39;100.00
12626;BME280;6378;42.684;23.372;2022-09-29T03:11:57;94225.06;;;15.11;100.00
12626;BME280;6378;42.684;23.372;2022-09-29T03:14:23;94212.69;;;15.10;100.00
12626;BME280;6378;42.684;23.372;2022-09-29T03:16:48;94221.94;;;15.20;100.00
12626;BME280;6378;42.684;23.372;2022-09-29T03:19:14;94218.00;;;15.35;100.00
12626;BME280;6378;42.684;23.372;2022-09-29T03:21:39;94219.94;;;15.38;100.00
12626;BME280;6378;42.684;23.372;2022-09-29T03:24:05;94229.25;;;15.30;100.00
12626;BME280;6378;42.684;23.372;2022-09-29T03:26:30;94231.16;;;15.37;100.00
12626;BME280;6378;42.684;23.372;2022-09-29T03:28:56;94244.69;;;15.47;100.00
12626;BME280;6378;42.684;23.372;2022-09-29T03:31:21;94263.63;;;15.54;100.00
12626;BME280;6378;42.684;23.372;2022-09-29T03:33:47;94263.66;;;15.58;100.00
12626;BME280;6378;42.684;23.372;2022-09-29T03:36:12;94264.38;;;15.66;100.00
12626;BME280;6378;42.684;23.372;2022-09-29T03:38:38;94234.97;;;15.50;100.00
12626;BME280;6378;42.684;23.372;2022-09-29T03:41:04;94251.28;;;15.53;100.00
12626;BME280;6378;42.684;23.372;2022-09-29T03:43:30;94247.88;;;15.25;100.00
12626;BME280;6378;42.684;23.372;2022-09-29T03:45:55;94251.88;;;14.95;100.00
12626;BME280;6378;42.684;23.372;2022-09-29T03:48:22;94285.13;;;14.92;100.00
12626;BME280;6378;42.684;23.372;2022-09-29T03:50:49;94296.78;;;14.79;100.00
12626;BME280;6378;42.684;23.372;2022-09-29T03:53:15;94297.97;;;14.60;100.00
12626;BME280;6378;42.684;23.372;2022-09-29T03:55:43;94296.81;;;14.50;100.00
12626;BME280;6378;42.684;23.372;2022-09-29T03:58:09;94294.47;;;14.42;100.00
12626;BME280;6378;42.684;23.372;2022-09-29T04:00:35;94284.03;;;14.29;100.00
12626;BME280;6378;42.684;23.372;2022-09-29T04:03:00;94287.13;;;14.31;100.00
12626;BME280;6378;42.684;23.372;2022-09-29T04:05:26;94294.47;;;14.42;100.00
12626;BME280;6378;42.684;23.372;2022-09-29T04:07:53;94270.09;;;14.35;100.00
12626;BME280;6378;42.684;23.372;2022-09-29T04:10:18;94279.75;;;14.32;100.00
12626;BME280;6378;42.684;23.372;2022-09-29T04:12:44;94277.06;;;14.21;100.00
12626;BME280;6378;42.684;23.372;2022-09-29T04:15:09;94289.06;;;14.38;100.00
12626;BME280;6378;42.684;23.372;2022-09-29T04:17:35;94285.94;;;14.29;100.00
12626;BME280;6378;42.684;23.372;2022-09-29T04:20:00;94284.78;;;14.33;100.00
12626;BME280;6378;42.684;23.372;2022-09-29T04:22:26;94281.69;;;14.24;100.00
12626;BME280;6378;42.684;23.372;2022-09-29T04:24:52;94282.47;;;14.18;100.00
12626;BME280;6378;42.684;23.372;2022-09-29T04:27:17;94279.38;;;14.19;100.00
12626;BME280;6378;42.684;23.372;2022-09-29T04:29:43;94258.09;;;14.04;100.00
12626;BME280;6378;42.684;23.372;2022-09-29T04:32:09;94280.19;;;14.41;100.00
12626;BME280;6378;42.684;23.372;2022-09-29T04:34:35;94274.38;;;14.43;100.00
12626;BME280;6378;42.684;23.372;2022-09-29T04:37:01;94267.78;;;14.15;100.00
12626;BME280;6378;42.684;23.372;2022-09-29T04:39:27;94269.31;;;14.06;100.00
12626;BME280;6378;42.684;23.372;2022-09-29T04:41:52;94273.97;;;14.16;100.00
12626;BME280;6378;42.684;23.372;2022-09-29T04:44:18;94286.34;;;14.31;100.00
12626;BME280;6378;42.684;23.372;2022-09-29T04:46:51;94273.97;;;14.19;100.00
12626;BME280;6378;42.684;23.372;2022-09-29T04:49:17;94269.31;;;14.27;100.00
12626;BME280;6378;42.684;23.372;2022-09-29T04:51:43;94260.81;;;14.53;100.00
12626;BME280;6378;42.684;23.372;2022-09-29T04:54:08;94245.75;;;14.59;100.00
12626;BME280;6378;42.684;23.372;2022-09-29T04:56:34;94273.94;;;14.87;100.00
12626;BME280;6378;42.684;23.372;2022-09-29T04:58:59;94260.66;;;15.28;100.00
12626;BME280;6378;42.684;23.372;2022-09-29T05:01:25;94253.28;;;16.04;100.00
12626;BME280;6378;42.684;23.372;2022-09-29T05:03:51;94241.41;;;16.80;100.00
12626;BME280;6378;42.684;23.372;2022-09-29T05:06:16;94233.16;;;17.25;100.00
12626;BME280;6378;42.684;23.372;2022-09-29T05:08:41;94239.66;;;17.65;100.00
12626;BME280;6378;42.684;23.372;2022-09-29T05:11:08;94204.13;;;17.75;100.00
12626;BME280;6378;42.684;23.372;2022-09-29T05:13:34;94218.63;;;17.96;100.00
12626;BME280;6378;42.684;23.372;2022-09-29T05:16:01;94208.72;;;18.32;100.00
12626;BME280;6378;42.684;23.372;2022-09-29T05:18:27;94215.06;;;18.92;100.00
12626;BME280;6378;42.684;23.372;2022-09-29T05:20:52;94216.34;;;19.66;97.30
12626;BME280;6378;42.684;23.372;2022-09-29T05:23:18;94219.31;;;19.92;93.12
12626;BME280;6378;42.684;23.372;2022-09-29T05:25:44;94238.91;;;20.55;87.37
12626;BME280;6378;42.684;23.372;2022-09-29T05:28:10;94232.09;;;21.37;83.16
12626;BME280;6378;42.684;23.372;2022-09-29T05:30:37;94207.03;;;21.09;76.61
12626;BME280;6378;42.684;23.372;2022-09-29T05:33:03;94199.00;;;21.02;77.17
12626;BME280;6378;42.684;23.372;2022-09-29T05:35:28;94225.50;;;21.63;75.86
12626;BME280;6378;42.684;23.372;2022-09-29T05:37:54;94223.34;;;22.34;69.99
12626;BME280;6378;42.684;23.372;2022-09-29T05:40:19;94221.44;;;22.69;65.75
12626;BME280;6378;42.684;23.372;2022-09-29T05:42:48;94223.97;;;23.10;64.33
12626;BME280;6378;42.684;23.372;2022-09-29T05:45:13;94233.34;;;23.78;59.83
12626;BME280;6378;42.684;23.372;2022-09-29T05:47:42;94232.72;;;23.74;56.99
12626;BME280;6378;42.684;23.372;2022-09-29T05:50:10;94211.22;;;23.82;56.50
12626;BME280;6378;42.684;23.372;2022-09-29T05:52:36;94247.84;;;24.09;57.54
12626;BME280;6378;42.684;23.372;2022-09-29T05:55:01;94251.97;;;24.36;55.51
12626;BME280;6378;42.684;23.372;2022-09-29T05:57:27;94256.47;;;24.51;55.77
12626;BME280;6378;42.684;23.372;2022-09-29T05:59:52;94250.78;;;25.04;52.84
12626;BME280;6378;42.684;23.372;2022-09-29T06:02:17;94249.56;;;24.47;54.07
12626;BME280;6378;42.684;23.372;2022-09-29T06:04:43;94253.25;;;23.26;57.50
12626;BME280;6378;42.684;23.372;2022-09-29T06:07:08;94250.53;;;23.69;58.08
12626;BME280;6378;42.684;23.372;2022-09-29T06:09:34;94252.09;;;24.32;55.61
12626;BME280;6378;42.684;23.372;2022-09-29T06:12:01;94259.25;;;24.30;54.36
12626;BME280;6378;42.684;23.372;2022-09-29T06:14:26;94263.00;;;24.14;54.67
12626;BME280;6378;42.684;23.372;2022-09-29T06:16:52;94274.00;;;24.14;55.63
12626;BME280;6378;42.684;23.372;2022-09-29T06:19:17;94278.03;;;24.00;56.93
12626;BME280;6378;42.684;23.372;2022-09-29T06:21:43;94245.16;;;23.88;56.52
12626;BME280;6378;42.684;23.372;2022-09-29T06:24:08;94262.00;;;23.99;56.50
12626;BME280;6378;42.684;23.372;2022-09-29T06:26:34;94264.59;;;24.24;57.50
12626;BME280;6378;42.684;23.372;2022-09-29T06:28:59;94263.91;;;24.42;55.24
12626;BME280;6378;42.684;23.372;2022-09-29T06:31:26;94264.34;;;23.79;57.88
12626;BME280;6378;42.684;23.372;2022-09-29T06:33:56;94277.25;;;23.69;58.23
12626;BME280;6378;42.684;23.372;2022-09-29T06:36:34;94271.38;;;23.80;58.68
12626;BME280;6378;42.684;23.372;2022-09-29T06:39:19;94274.53;;;24.22;56.86
12626;BME280;6378;42.684;23.372;2022-09-29T06:41:45;94259.31;;;24.39;55.35
12626;BME280;6378;42.684;23.372;2022-09-29T06:44:19;94274.88;;;24.33;54.74
12626;BME280;6378;42.684;23.372;2022-09-29T06:46:44;94288.34;;;24.40;55.06
12626;BME280;6378;42.684;23.372;2022-09-29T06:49:11;94277.00;;;24.07;55.31
12626;BME280;6378;42.684;23.372;2022-09-29T06:51:40;94270.94;;;23.90;56.15
12626;BME280;6378;42.684;23.372;2022-09-29T06:54:11;94276.16;;;23.66;57.14
12626;BME280;6378;42.684;23.372;2022-09-29T06:56:37;94271.28;;;23.14;59.27
12626;BME280;6378;42.684;23.372;2022-09-29T06:59:03;94281.25;;;22.86;61.84
12626;BME280;6378;42.684;23.372;2022-09-29T07:01:28;94278.06;;;22.63;63.97
12626;BME280;6378;42.684;23.372;2022-09-29T07:03:54;94284.75;;;22.24;66.96
12626;BME280;6378;42.684;23.372;2022-09-29T07:06:19;94293.44;;;22.22;67.32
12626;BME280;6378;42.684;23.372;2022-09-29T07:08:44;94295.09;;;22.45;66.93
12626;BME280;6378;42.684;23.372;2022-09-29T07:11:10;94298.38;;;22.40;66.45
12626;BME280;6378;42.684;23.372;2022-09-29T07:13:36;94294.75;;;22.30;68.28
12626;BME280;6378;42.684;23.372;2022-09-29T07:16:04;94304.63;;;22.40;67.91
12626;BME280;6378;42.684;23.372;2022-09-29T07:18:32;94297.84;;;22.58;65.55
12626;BME280;6378;42.684;23.372;2022-09-29T07:20:59;94302.88;;;22.84;64.13
12626;BME280;6378;42.684;23.372;2022-09-29T07:23:24;94302.97;;;22.94;63.29
12626;BME280;6378;42.684;23.372;2022-09-29T07:25:51;94278.19;;;22.46;65.28
12626;BME280;6378;42.684;23.372;2022-09-29T07:28:17;94288.06;;;22.82;65.66
12626;BME280;6378;42.684;23.372;2022-09-29T07:30:42;94288.69;;;22.99;63.94
12626;BME280;6378;42.684;23.372;2022-09-29T07:33:08;94287.47;;;23.00;64.46
12626;BME280;6378;42.684;23.372;2022-09-29T07:35:33;94275.91;;;22.58;66.01
12626;BME280;6378;42.684;23.372;2022-09-29T07:37:58;94292.97;;;22.24;68.15
12626;BME280;6378;42.684;23.372;2022-09-29T07:40:24;94286.66;;;21.85;70.36
12626;BME280;6378;42.684;23.372;2022-09-29T07:42:50;94296.69;;;22.04;68.11
12626;BME280;6378;42.684;23.372;2022-09-29T07:45:16;94272.09;;;21.88;69.70
12626;BME280;6378;42.684;23.372;2022-09-29T07:47:42;94287.25;;;21.93;69.55
12626;BME280;6378;42.684;23.372;2022-09-29T07:50:08;94293.63;;;22.02;71.23
12626;BME280;6378;42.684;23.372;2022-09-29T07:52:33;94297.03;;;22.07;70.63
12626;BME280;6378;42.684;23.372;2022-09-29T07:54:59;94285.66;;;22.08;70.60
12626;BME280;6378;42.684;23.372;2022-09-29T07:57:25;94300.69;;;21.87;72.20
12626;BME280;6378;42.684;23.372;2022-09-29T07:59:50;94299.16;;;21.86;73.85
12626;BME280;6378;42.684;23.372;2022-09-29T08:02:16;94307.44;;;21.99;70.16
12626;BME280;6378;42.684;23.372;2022-09-29T08:04:41;94312.72;;;22.06;70.73
12626;BME280;6378;42.684;23.372;2022-09-29T08:07:08;94309.44;;;22.49;70.25
12626;BME280;6378;42.684;23.372;2022-09-29T08:09:33;94295.19;;;22.79;68.68
12626;BME280;6378;42.684;23.372;2022-09-29T08:11:59;94315.13;;;23.05;63.56
12626;BME280;6378;42.684;23.372;2022-09-29T08:14:24;94316.56;;;22.97;63.30
12626;BME280;6378;42.684;23.372;2022-09-29T08:16:50;94321.75;;;22.95;62.27
12626;BME280;6378;42.684;23.372;2022-09-29T08:19:15;94325.09;;;23.12;58.83
12626;BME280;6378;42.684;23.372;2022-09-29T08:21:41;94327.50;;;23.22;61.12
12626;BME280;6378;42.684;23.372;2022-09-29T08:24:06;94326.22;;;23.36;60.22
12626;BME280;6378;42.684;23.372;2022-09-29T08:26:34;94330.31;;;23.31;61.21
12626;BME280;6378;42.684;23.372;2022-09-29T08:29:00;94327.28;;;23.17;60.92
12626;BME280;6378;42.684;23.372;2022-09-29T08:31:26;94336.44;;;23.48;61.31
12626;BME280;6378;42.684;23.372;2022-09-29T08:33:55;94336.34;;;23.73;60.78
12626;BME280;6378;42.684;23.372;2022-09-29T08:36:23;94341.34;;;23.88;58.76
12626;BME280;6378;42.684;23.372;2022-09-29T08:38:51;94337.91;;;24.18;58.00
12626;BME280;6378;42.684;23.372;2022-09-29T08:43:49;94332.78;;;24.69;55.24
12626;BME280;6378;42.684;23.372;2022-09-29T08:46:37;94331.25;;;24.68;51.65
12626;BME280;6378;42.684;23.372;2022-09-29T08:49:09;94319.44;;;24.89;51.00
12626;BME280;6378;42.684;23.372;2022-09-29T08:51:44;94334.25;;;25.41;50.82
12626;BME280;6378;42.684;23.372;2022-09-29T08:56:43;94263.66;;;25.16;48.21
12626;BME280;6378;42.684;23.372;2022-09-29T08:59:10;94320.59;;;25.46;49.33
12626;BME280;6378;42.684;23.372;2022-09-29T09:01:47;94327.47;;;25.33;47.65
12626;BME280;6378;42.684;23.372;2022-09-29T09:04:32;94326.09;;;25.37;49.81
12626;BME280;6378;42.684;23.372;2022-09-29T09:09:37;94303.53;;;24.93;48.80
12626;BME280;6378;42.684;23.372;2022-09-29T09:17:52;94320.13;;;25.30;47.27
12626;BME280;6378;42.684;23.372;2022-09-29T09:25:38;94321.09;;;25.72;45.81
12626;BME280;6378;42.684;23.372;2022-09-29T09:30:47;94332.59;;;25.89;42.07
12626;BME280;6378;42.684;23.372;2022-09-29T09:33:25;94339.00;;;25.86;42.26
12626;BME280;6378;42.684;23.372;2022-09-29T09:36:01;94331.97;;;26.03;42.31
12626;BME280;6378;42.684;23.372;2022-09-29T09:38:43;94309.25;;;26.26;41.48
12626;BME280;6378;42.684;23.372;2022-09-29T09:41:13;94296.88;;;26.55;40.86
12626;BME280;6378;42.684;23.372;2022-09-29T09:43:44;94307.88;;;26.64;40.91
12626;BME280;6378;42.684;23.372;2022-09-29T09:46:12;94311.69;;;26.15;42.10
12626;BME280;6378;42.684;23.372;2022-09-29T09:48:43;94310.66;;;25.85;42.73
12626;BME280;6378;42.684;23.372;2022-09-29T09:51:32;94317.38;;;25.30;42.77
12626;BME280;6378;42.684;23.372;2022-09-29T09:54:04;94319.38;;;25.29;43.53
12626;BME280;6378;42.684;23.372;2022-09-29T09:57:01;94319.22;;;25.33;43.94
12626;BME280;6378;42.684;23.372;2022-09-29T10:02:30;94319.19;;;25.15;42.83
12626;BME280;6378;42.684;23.372;2022-09-29T10:04:56;94322.75;;;25.33;43.09
12626;BME280;6378;42.684;23.372;2022-09-29T10:07:24;94326.06;;;25.01;42.78
12626;BME280;6378;42.684;23.372;2022-09-29T10:09:50;94315.69;;;25.32;40.58
12626;BME280;6378;42.684;23.372;2022-09-29T10:12:18;94328.13;;;25.46;41.10
12626;BME280;6378;42.684;23.372;2022-09-29T10:14:49;94319.88;;;25.64;42.02
12626;BME280;6378;42.684;23.372;2022-09-29T10:17:18;94317.75;;;25.68;41.23
12626;BME280;6378;42.684;23.372;2022-09-29T10:20:00;94318.47;;;25.87;40.78
12626;BME280;6378;42.684;23.372;2022-09-29T10:22:27;94313.25;;;26.07;42.01
12626;BME280;6378;42.684;23.372;2022-09-29T10:27:40;94314.47;;;26.24;38.69
12626;BME280;6378;42.684;23.372;2022-09-29T10:30:32;94309.50;;;26.47;37.86
12626;BME280;6378;42.684;23.372;2022-09-29T10:33:01;94316.31;;;26.69;37.59
12626;BME280;6378;42.684;23.372;2022-09-29T10:35:36;94315.72;;;26.23;37.68
12626;BME280;6378;42.684;23.372;2022-09-29T10:38:05;94311.16;;;25.84;38.91
12626;BME280;6378;42.684;23.372;2022-09-29T10:40:32;94303.47;;;25.42;39.97
12626;BME280;6378;42.684;23.372;2022-09-29T10:45:54;94310.66;;;25.31;39.46
12626;BME280;6378;42.684;23.372;2022-09-29T10:48:23;94319.22;;;25.33;39.86
12626;BME280;6378;42.684;23.372;2022-09-29T10:50:58;94310.53;;;25.89;38.84
12626;BME280;6378;42.684;23.372;2022-09-29T10:55:57;94306.41;;;25.57;39.68
12626;BME280;6378;42.684;23.372;2022-09-29T10:58:41;94305.94;;;25.77;38.62
12626;BME280;6378;42.684;23.372;2022-09-29T11:01:14;94304.69;;;25.87;39.07
12626;BME280;6378;42.684;23.372;2022-09-29T11:03:54;94296.84;;;26.13;38.47
12626;BME280;6378;42.684;23.372;2022-09-29T11:06:29;94289.72;;;26.48;38.31
12626;BME280;6378;42.684;23.372;2022-09-29T11:09:00;94297.56;;;26.73;37.30
12626;BME280;6378;42.684;23.372;2022-09-29T11:11:36;94290.75;;;26.93;37.14
12626;BME280;6378;42.684;23.372;2022-09-29T11:14:02;94296.25;;;27.02;36.40
12626;BME280;6378;42.684;23.372;2022-09-29T11:16:33;94272.03;;;26.22;37.35
12626;BME280;6378;42.684;23.372;2022-09-29T11:19:03;94285.06;;;26.03;37.96
12626;BME280;6378;42.684;23.372;2022-09-29T11:32:42;94278.34;;;26.88;38.05
12626;BME280;6378;42.684;23.372;2022-09-29T11:35:35;94281.19;;;26.70;38.52
12626;BME280;6378;42.684;23.372;2022-09-29T11:43:29;94270.50;;;26.63;38.57
12626;BME280;6378;42.684;23.372;2022-09-29T11:53:56;94274.13;;;26.69;38.35
12626;BME280;6378;42.684;23.372;2022-09-29T11:56:28;94277.34;;;26.35;39.42
12626;BME280;6378;42.684;23.372;2022-09-29T12:06:56;94272.84;;;25.86;41.52
12626;BME280;6378;42.684;23.372;2022-09-29T12:12:27;94261.84;;;25.68;40.76
12626;BME280;6378;42.684;23.372;2022-09-29T12:17:22;94259.09;;;25.68;40.67
12626;BME280;6378;42.684;23.372;2022-09-29T12:19:56;94268.88;;;25.69;41.01
12626;BME280;6378;42.684;23.372;2022-09-29T12:22:24;94267.53;;;25.55;41.95
12626;BME280;6378;42.684;23.372;2022-09-29T12:24:53;94259.38;;;25.42;42.62
12626;BME280;6378;42.684;23.372;2022-09-29T12:30:21;94263.69;;;25.62;41.48
12626;BME280;6378;42.684;23.372;2022-09-29T12:32:53;94259.69;;;25.44;44.04
12626;BME280;6378;42.684;23.372;2022-09-29T12:40:36;94261.81;;;25.04;41.06
12626;BME280;6378;42.684;23.372;2022-09-29T12:43:22;94262.56;;;25.14;40.39
12626;BME280;6378;42.684;23.372;2022-09-29T12:49:06;94264.56;;;25.22;41.00
12626;BME280;6378;42.684;23.372;2022-09-29T12:51:41;94262.75;;;25.28;39.88
12626;BME280;6378;42.684;23.372;2022-09-29T12:54:20;94268.09;;;25.32;39.46
12626;BME280;6378;42.684;23.372;2022-09-29T12:59:54;94257.84;;;25.51;41.01
12626;BME280;6378;42.684;23.372;2022-09-29T13:05:02;94263.06;;;25.58;40.76
12626;BME280;6378;42.684;23.372;2022-09-29T13:15:47;94238.28;;;25.30;41.07
12626;BME280;6378;42.684;23.372;2022-09-29T13:31:12;94267.47;;;25.28;41.93
12626;BME280;6378;42.684;23.372;2022-09-29T13:33:40;94249.91;;;25.16;42.13
12626;BME280;6378;42.684;23.372;2022-09-29T13:36:26;94271.00;;;25.28;41.93
12626;BME280;6378;42.684;23.372;2022-09-29T13:38:55;94275.44;;;25.44;42.03
12626;BME280;6378;42.684;23.372;2022-09-29T13:49:21;94278.06;;;25.38;41.61
12626;BME280;6378;42.684;23.372;2022-09-29T13:59:42;94284.16;;;25.42;42.05
12626;BME280;6378;42.684;23.372;2022-09-29T14:04:54;94283.56;;;25.20;43.63
12626;BME280;6378;42.684;23.372;2022-09-29T14:07:39;94292.59;;;25.12;44.64
12626;BME280;6378;42.684;23.372;2022-09-29T14:12:40;94276.41;;;24.83;44.74
12626;BME280;6378;42.684;23.372;2022-09-29T14:15:06;94287.66;;;24.57;44.65
12626;BME280;6378;42.684;23.372;2022-09-29T14:17:56;94274.91;;;24.42;44.76
12626;BME280;6378;42.684;23.372;2022-09-29T14:20:28;94290.00;;;24.28;45.91
12626;BME280;6378;42.684;23.372;2022-09-29T14:23:01;94292.38;;;24.17;46.28
12626;BME280;6378;42.684;23.372;2022-09-29T14:28:04;94302.81;;;23.79;46.24
12626;BME280;6378;42.684;23.372;2022-09-29T14:33:02;94330.72;;;23.77;47.20
12626;BME280;6378;42.684;23.372;2022-09-29T14:35:38;94353.22;;;23.63;49.20
12626;BME280;6378;42.684;23.372;2022-09-29T14:40:37;94382.50;;;23.31;65.26
12626;BME280;6378;42.684;23.372;2022-09-29T14:43:15;94391.94;;;22.42;76.05
12626;BME280;6378;42.684;23.372;2022-09-29T14:55:18;94424.94;;;20.67;100.00
12626;BME280;6378;42.684;23.372;2022-09-29T15:00:49;94419.94;;;20.46;100.00
12626;BME280;6378;42.684;23.372;2022-09-29T15:03:34;94397.19;;;20.13;100.00
12626;BME280;6378;42.684;23.372;2022-09-29T15:08:37;94444.09;;;19.69;100.00
12626;BME280;6378;42.684;23.372;2022-09-29T15:11:23;94448.00;;;19.68;100.00
12626;BME280;6378;42.684;23.372;2022-09-29T15:13:49;94437.16;;;19.64;100.00
12626;BME280;6378;42.684;23.372;2022-09-29T15:16:29;94436.00;;;19.62;100.00
12626;BME280;6378;42.684;23.372;2022-09-29T15:19:15;94428.66;;;19.59;100.00
12626;BME280;6378;42.684;23.372;2022-09-29T15:24:35;94441.00;;;19.67;100.00
12626;BME280;6378;42.684;23.372;2022-09-29T15:27:05;94442.13;;;19.69;100.00
12626;BME280;6378;42.684;23.372;2022-09-29T15:29:36;94444.00;;;19.72;100.00
12626;BME280;6378;42.684;23.372;2022-09-29T15:32:02;94445.50;;;19.77;100.00
12626;BME280;6378;42.684;23.372;2022-09-29T15:34:29;94449.47;;;19.72;100.00
12626;BME280;6378;42.684;23.372;2022-09-29T15:36:56;94454.63;;;19.67;100.00
12626;BME280;6378;42.684;23.372;2022-09-29T15:42:17;94471.38;;;19.45;100.00
12626;BME280;6378;42.684;23.372;2022-09-29T15:44:52;94479.25;;;19.40;100.00
12626;BME280;6378;42.684;23.372;2022-09-29T15:47:41;94469.22;;;19.33;100.00
12626;BME280;6378;42.684;23.372;2022-09-29T15:52:40;94479.78;;;19.31;100.00
12626;BME280;6378;42.684;23.372;2022-09-29T15:55:14;94476.25;;;19.31;100.00
12626;BME280;6378;42.684;23.372;2022-09-29T15:57:43;94471.25;;;19.29;100.00
12626;BME280;6378;42.684;23.372;2022-09-29T16:02:48;94477.47;;;19.30;100.00
12626;BME280;6378;42.684;23.372;2022-09-29T16:05:20;94473.25;;;19.25;100.00
12626;BME280;6378;42.684;23.372;2022-09-29T16:07:52;94481.00;;;19.27;100.00
12626;BME280;6378;42.684;23.372;2022-09-29T16:10:27;94479.22;;;19.67;100.00
12626;BME280;6378;42.684;23.372;2022-09-29T16:12:55;94479.91;;;19.71;100.00
12626;BME280;6378;42.684;23.372;2022-09-29T16:17:49;94477.31;;;20.07;100.00
12626;BME280;6378;42.684;23.372;2022-09-29T16:20:23;94490.13;;;20.10;100.00
12626;BME280;6378;42.684;23.372;2022-09-29T16:22:50;94496.06;;;19.85;100.00
12626;BME280;6378;42.684;23.372;2022-09-29T16:25:25;94498.31;;;19.67;100.00
12626;BME280;6378;42.684;23.372;2022-09-29T16:30:29;94504.59;;;19.14;100.00
12626;BME280;6378;42.684;23.372;2022-09-29T16:33:02;94533.53;;;19.34;100.00
12626;BME280;6378;42.684;23.372;2022-09-29T16:35:39;94538.69;;;19.56;100.00
12626;BME280;6378;42.684;23.372;2022-09-29T16:38:18;94549.44;;;19.39;100.00